sensor_id;sensor_type;location;lat;lon;timestamp;temperature;humidity
7317;DHT22;3699;51.462;6.696;2023-04-15T00:00:38;9.40;99.90
7317;DHT22;3699;51.462;6.696;2023-04-15T00:03:05;9.30;99.90
7317;DHT22;3699;51.462;6.696;2023-04-15T00:05:33;9.30;99.90
7317;DHT22;3699;51.462;6.696;2023-04-15T00:08:00;9.30;99.90
7317;DHT22;3699;51.462;6.696;2023-04-15T00:10:28;9.20;99.90
7317;DHT22;3699;51.462;6.696;2023-04-15T00:12:54;9.30;99.90
7317;DHT22;3699;51.462;6.696;2023-04-15T00:15:21;9.30;99.90
7317;DHT22;3699;51.462;6.696;2023-04-15T00:17:49;9.20;99.90
7317;DHT22;3699;51.462;6.696;2023-04-15T00:20:16;9.20;99.90
7317;DHT22;3699;51.462;6.696;2023-04-15T00:22:43;9.20;99.90
7317;DHT22;3699;51.462;6.696;2023-04-15T00:25:11;9.20;99.90
7317;DHT22;3699;51.462;6.696;2023-04-15T00:27:39;9.20;99.90
7317;DHT22;3699;51.462;6.696;2023-04-15T00:30:06;9.20;99.90
7317;DHT22;3699;51.462;6.696;2023-04-15T00:32:33;9.20;99.90
7317;DHT22;3699;51.462;6.696;2023-04-15T00:35:00;9.20;99.90
7317;DHT22;3699;51.462;6.696;2023-04-15T00:37:26;9.30;99.90
7317;DHT22;3699;51.462;6.696;2023-04-15T00:39:53;9.20;99.90
7317;DHT22;3699;51.462;6.696;2023-04-15T00:42:20;9.30;99.90
7317;DHT22;3699;51.462;6.696;2023-04-15T00:44:48;9.20;99.90
7317;DHT22;3699;51.462;6.696;2023-04-15T00:47:15;9.30;99.90
7317;DHT22;3699;51.462;6.696;2023-04-15T00:49:42;9.20;99.90
7317;DHT22;3699;51.462;6.696;2023-04-15T00:52:09;9.20;99.90
7317;DHT22;3699;51.462;6.696;2023-04-15T00:54:36;9.10;99.90
7317;DHT22;3699;51.462;6.696;2023-04-15T00:57:04;9.20;99.90
7317;DHT22;3699;51.462;6.696;2023-04-15T00:59:33;9.20;99.90
7317;DHT22;3699;51.462;6.696;2023-04-15T01:02:01;9.20;99.90
7317;DHT22;3699;51.462;6.696;2023-04-15T01:04:28;9.10;99.90
7317;DHT22;3699;51.462;6.696;2023-04-15T01:06:55;9.20;99.90
7317;DHT22;3699;51.462;6.696;2023-04-15T01:09:21;9.10;99.90
7317;DHT22;3699;51.462;6.696;2023-04-15T01:11:48;9.10;99.90
7317;DHT22;3699;51.462;6.696;2023-04-15T01:14:15;8.90;99.90
7317;DHT22;3699;51.462;6.696;2023-04-15T01:16:42;8.90;99.90
7317;DHT22;3699;51.462;6.696;2023-04-15T01:19:11;9.20;99.90
7317;DHT22;3699;51.462;6.696;2023-04-15T01:21:39;8.90;99.90
7317;DHT22;3699;51.462;6.696;2023-04-15T01:24:08;9.00;99.90
7317;DHT22;3699;51.462;6.696;2023-04-15T01:26:37;8.80;99.90
7317;DHT22;3699;51.462;6.696;2023-04-15T01:29:04;8.80;99.90
7317;DHT22;3699;51.462;6.696;2023-04-15T01:31:31;8.80;99.90
7317;DHT22;3699;51.462;6.696;2023-04-15T01:33:58;8.80;99.90
7317;DHT22;3699;51.462;6.696;2023-04-15T01:36:25;8.80;99.90
7317;DHT22;3699;51.462;6.696;2023-04-15T01:38:52;8.80;99.90
7317;DHT22;3699;51.462;6.696;2023-04-15T01:41:21;8.70;99.90
7317;DHT22;3699;51.462;6.696;2023-04-15T01:43:51;8.70;99.90
7317;DHT22;3699;51.462;6.696;2023-04-15T01:46:18;8.70;99.90
7317;DHT22;3699;51.462;6.696;2023-04-15T01:48:44;8.60;99.90
7317;DHT22;3699;51.462;6.696;2023-04-15T01:51:11;8.60;99.90
7317;DHT22;3699;51.462;6.696;2023-04-15T01:53:38;8.50;99.90
7317;DHT22;3699;51.462;6.696;2023-04-15T01:56:05;8.40;99.90
7317;DHT22;3699;51.462;6.696;2023-04-15T01:58:32;8.40;99.90
7317;DHT22;3699;51.462;6.696;2023-04-15T02:01:00;8.40;99.90
7317;DHT22;3699;51.462;6.696;2023-04-15T02:03:28;8.30;99.90
7317;DHT22;3699;51.462;6.696;2023-04-15T02:05:55;8.30;99.90
7317;DHT22;3699;51.462;6.696;2023-04-15T02:08:22;8.30;99.90
7317;DHT22;3699;51.462;6.696;2023-04-15T02:10:48;8.30;99.90
7317;DHT22;3699;51.462;6.696;2023-04-15T02:13:15;8.30;99.90
7317;DHT22;3699;51.462;6.696;2023-04-15T02:15:46;8.30;99.90
7317;DHT22;3699;51.462;6.696;2023-04-15T02:18:14;8.30;99.90
7317;DHT22;3699;51.462;6.696;2023-04-15T02:20:41;8.30;99.90
7317;DHT22;3699;51.462;6.696;2023-04-15T02:23:09;8.30;99.90
7317;DHT22;3699;51.462;6.696;2023-04-15T02:25:36;8.30;99.90
7317;DHT22;3699;51.462;6.696;2023-04-15T02:28:03;8.30;99.90
7317;DHT22;3699;51.462;6.696;2023-04-15T02:30:30;8.30;99.90
7317;DHT22;3699;51.462;6.696;2023-04-15T02:32:57;8.30;99.90
7317;DHT22;3699;51.462;6.696;2023-04-15T02:35:26;8.30;99.90
7317;DHT22;3699;51.462;6.696;2023-04-15T02:37:52;8.20;99.90
7317;DHT22;3699;51.462;6.696;2023-04-15T02:40:19;8.30;99.90
7317;DHT22;3699;51.462;6.696;2023-04-15T02:45:13;7.90;99.90
7317;DHT22;3699;51.462;6.696;2023-04-15T02:47:40;8.00;99.90
7317;DHT22;3699;51.462;6.696;2023-04-15T02:50:09;7.80;99.90
7317;DHT22;3699;51.462;6.696;2023-04-15T02:52:38;7.70;99.90
7317;DHT22;3699;51.462;6.696;2023-04-15T02:55:06;7.90;99.90
7317;DHT22;3699;51.462;6.696;2023-04-15T03:00:04;7.80;99.90
7317;DHT22;3699;51.462;6.696;2023-04-15T03:02:33;7.60;99.90
7317;DHT22;3699;51.462;6.696;2023-04-15T03:04:59;7.60;99.90
7317;DHT22;3699;51.462;6.696;2023-04-15T03:09:55;7.80;99.90
7317;DHT22;3699;51.462;6.696;2023-04-15T03:12:21;7.90;99.90
7317;DHT22;3699;51.462;6.696;2023-04-15T03:17:15;7.70;99.90
7317;DHT22;3699;51.462;6.696;2023-04-15T03:19:43;7.60;99.90
7317;DHT22;3699;51.462;6.696;2023-04-15T03:22:09;7.80;99.90
7317;DHT22;3699;51.462;6.696;2023-04-15T03:24:36;7.20;99.90
7317;DHT22;3699;51.462;6.696;2023-04-15T03:27:04;7.70;99.90
7317;DHT22;3699;51.462;6.696;2023-04-15T03:31:59;7.70;99.90
7317;DHT22;3699;51.462;6.696;2023-04-15T03:34:26;7.80;99.90
7317;DHT22;3699;51.462;6.696;2023-04-15T03:36:53;7.70;99.90
7317;DHT22;3699;51.462;6.696;2023-04-15T03:39:19;8.10;99.90
7317;DHT22;3699;51.462;6.696;2023-04-15T03:44:14;7.70;99.90
7317;DHT22;3699;51.462;6.696;2023-04-15T03:46:41;7.60;99.90
7317;DHT22;3699;51.462;6.696;2023-04-15T03:51:35;7.80;99.90
7317;DHT22;3699;51.462;6.696;2023-04-15T03:54:02;7.80;99.90
7317;DHT22;3699;51.462;6.696;2023-04-15T03:56:29;7.90;99.90
7317;DHT22;3699;51.462;6.696;2023-04-15T03:58:56;7.50;99.90
7317;DHT22;3699;51.462;6.696;2023-04-15T04:01:24;7.70;99.90
7317;DHT22;3699;51.462;6.696;2023-04-15T04:03:50;7.10;99.90
7317;DHT22;3699;51.462;6.696;2023-04-15T04:06:17;7.70;99.90
7317;DHT22;3699;51.462;6.696;2023-04-15T04:08:44;7.70;99.90
7317;DHT22;3699;51.462;6.696;2023-04-15T04:11:10;7.50;99.90
7317;DHT22;3699;51.462;6.696;2023-04-15T04:16:05;7.50;99.90
7317;DHT22;3699;51.462;6.696;2023-04-15T04:18:33;7.60;99.90
7317;DHT22;3699;51.462;6.696;2023-04-15T04:23:27;7.40;99.90
7317;DHT22;3699;51.462;6.696;2023-04-15T04:25:54;7.60;99.90
7317;DHT22;3699;51.462;6.696;2023-04-15T04:30:47;7.70;99.90
7317;DHT22;3699;51.462;6.696;2023-04-15T04:35:43;7.50;99.90
7317;DHT22;3699;51.462;6.696;2023-04-15T04:38:09;7.30;99.90
7317;DHT22;3699;51.462;6.696;2023-04-15T04:43:03;7.50;99.90
7317;DHT22;3699;51.462;6.696;2023-04-15T04:45:30;7.60;99.90
7317;DHT22;3699;51.462;6.696;2023-04-15T04:47:57;7.50;99.90
7317;DHT22;3699;51.462;6.696;2023-04-15T04:52:52;7.50;99.90
7317;DHT22;3699;51.462;6.696;2023-04-15T04:55:18;7.40;99.90
7317;DHT22;3699;51.462;6.696;2023-04-15T04:57:45;7.50;99.90
7317;DHT22;3699;51.462;6.696;2023-04-15T05:00:12;7.30;99.90
7317;DHT22;3699;51.462;6.696;2023-04-15T05:02:39;7.60;99.90
7317;DHT22;3699;51.462;6.696;2023-04-15T05:05:08;7.40;99.90
7317;DHT22;3699;51.462;6.696;2023-04-15T05:10:05;7.60;99.90
7317;DHT22;3699;51.462;6.696;2023-04-15T05:12:32;7.50;99.90
7317;DHT22;3699;51.462;6.696;2023-04-15T05:14:58;7.40;99.90
7317;DHT22;3699;51.462;6.696;2023-04-15T05:17:25;7.60;99.90
7317;DHT22;3699;51.462;6.696;2023-04-15T05:19:52;7.70;99.90
7317;DHT22;3699;51.462;6.696;2023-04-15T05:22:18;7.50;99.90
7317;DHT22;3699;51.462;6.696;2023-04-15T05:24:45;7.60;99.90
7317;DHT22;3699;51.462;6.696;2023-04-15T05:27:13;7.70;99.90
7317;DHT22;3699;51.462;6.696;2023-04-15T05:32:07;7.80;99.90
7317;DHT22;3699;51.462;6.696;2023-04-15T05:37:01;8.10;99.90
7317;DHT22;3699;51.462;6.696;2023-04-15T05:39:27;8.10;99.90
7317;DHT22;3699;51.462;6.696;2023-04-15T05:41:55;8.30;99.90
7317;DHT22;3699;51.462;6.696;2023-04-15T05:44:23;8.60;99.90
7317;DHT22;3699;51.462;6.696;2023-04-15T05:46:50;8.90;99.90
7317;DHT22;3699;51.462;6.696;2023-04-15T05:51:44;9.50;99.90
7317;DHT22;3699;51.462;6.696;2023-04-15T05:54:12;9.70;99.90
7317;DHT22;3699;51.462;6.696;2023-04-15T05:56:39;9.80;99.90
7317;DHT22;3699;51.462;6.696;2023-04-15T05:59:06;9.60;99.90
7317;DHT22;3699;51.462;6.696;2023-04-15T06:01:34;9.70;99.90
7317;DHT22;3699;51.462;6.696;2023-04-15T06:04:01;9.60;99.90
7317;DHT22;3699;51.462;6.696;2023-04-15T06:06:27;9.70;99.90
7317;DHT22;3699;51.462;6.696;2023-04-15T06:11:21;10.00;99.90
7317;DHT22;3699;51.462;6.696;2023-04-15T06:13:48;10.00;99.90
7317;DHT22;3699;51.462;6.696;2023-04-15T06:18:43;10.30;99.90
7317;DHT22;3699;51.462;6.696;2023-04-15T06:21:10;10.60;99.90
7317;DHT22;3699;51.462;6.696;2023-04-15T06:26:05;11.00;99.90
7317;DHT22;3699;51.462;6.696;2023-04-15T06:28:32;11.10;99.90
7317;DHT22;3699;51.462;6.696;2023-04-15T06:30:59;11.50;99.90
7317;DHT22;3699;51.462;6.696;2023-04-15T06:33:25;11.30;99.90
7317;DHT22;3699;51.462;6.696;2023-04-15T06:35:53;11.70;99.90
7317;DHT22;3699;51.462;6.696;2023-04-15T06:38:20;11.80;99.90
7317;DHT22;3699;51.462;6.696;2023-04-15T06:40:47;12.00;99.90
7317;DHT22;3699;51.462;6.696;2023-04-15T06:43:13;12.20;99.90
7317;DHT22;3699;51.462;6.696;2023-04-15T06:45:40;12.20;99.90
7317;DHT22;3699;51.462;6.696;2023-04-15T06:48:07;12.60;99.90
7317;DHT22;3699;51.462;6.696;2023-04-15T06:50:34;12.20;99.90
7317;DHT22;3699;51.462;6.696;2023-04-15T06:53:02;12.10;99.90
7317;DHT22;3699;51.462;6.696;2023-04-15T06:55:29;12.20;99.90
7317;DHT22;3699;51.462;6.696;2023-04-15T06:57:56;11.90;99.90
7317;DHT22;3699;51.462;6.696;2023-04-15T07:00:22;12.00;99.90
7317;DHT22;3699;51.462;6.696;2023-04-15T07:02:50;12.80;99.90
7317;DHT22;3699;51.462;6.696;2023-04-15T07:05:17;12.30;99.90
7317;DHT22;3699;51.462;6.696;2023-04-15T07:07:44;12.70;99.90
7317;DHT22;3699;51.462;6.696;2023-04-15T07:10:12;12.80;99.90
7317;DHT22;3699;51.462;6.696;2023-04-15T07:12:40;13.00;99.90
7317;DHT22;3699;51.462;6.696;2023-04-15T07:15:07;13.20;99.90
7317;DHT22;3699;51.462;6.696;2023-04-15T07:17:34;13.50;99.90
7317;DHT22;3699;51.462;6.696;2023-04-15T07:20:01;13.80;99.90
7317;DHT22;3699;51.462;6.696;2023-04-15T07:22:28;14.00;99.90
7317;DHT22;3699;51.462;6.696;2023-04-15T07:24:55;13.40;99.90
7317;DHT22;3699;51.462;6.696;2023-04-15T07:27:23;14.00;99.90
7317;DHT22;3699;51.462;6.696;2023-04-15T07:29:50;13.80;96.40
7317;DHT22;3699;51.462;6.696;2023-04-15T07:32:16;13.70;98.40
7317;DHT22;3699;51.462;6.696;2023-04-15T07:34:43;13.60;99.90
7317;DHT22;3699;51.462;6.696;2023-04-15T07:37:11;13.80;99.90
7317;DHT22;3699;51.462;6.696;2023-04-15T07:39:38;14.00;99.90
7317;DHT22;3699;51.462;6.696;2023-04-15T07:42:04;14.10;99.90
7317;DHT22;3699;51.462;6.696;2023-04-15T07:44:33;14.10;97.30
7317;DHT22;3699;51.462;6.696;2023-04-15T07:47:01;14.00;93.80
7317;DHT22;3699;51.462;6.696;2023-04-15T07:49:28;14.00;92.50
7317;DHT22;3699;51.462;6.696;2023-04-15T07:51:55;13.80;93.80
7317;DHT22;3699;51.462;6.696;2023-04-15T07:54:22;14.90;98.30
7317;DHT22;3699;51.462;6.696;2023-04-15T07:56:49;13.60;96.80
7317;DHT22;3699;51.462;6.696;2023-04-15T07:59:16;13.70;99.20
7317;DHT22;3699;51.462;6.696;2023-04-15T08:01:44;13.80;99.90
7317;DHT22;3699;51.462;6.696;2023-04-15T08:04:11;13.80;98.30
7317;DHT22;3699;51.462;6.696;2023-04-15T08:06:38;13.70;95.10
7317;DHT22;3699;51.462;6.696;2023-04-15T08:09:04;13.60;95.90
7317;DHT22;3699;51.462;6.696;2023-04-15T08:11:31;13.50;96.70
7317;DHT22;3699;51.462;6.696;2023-04-15T08:13:58;13.40;96.00
7317;DHT22;3699;51.462;6.696;2023-04-15T08:16:25;13.20;99.90
7317;DHT22;3699;51.462;6.696;2023-04-15T08:18:55;13.40;99.50
7317;DHT22;3699;51.462;6.696;2023-04-15T08:21:22;13.40;99.90
7317;DHT22;3699;51.462;6.696;2023-04-15T08:23:50;13.50;99.90
7317;DHT22;3699;51.462;6.696;2023-04-15T08:26:17;13.60;99.40
7317;DHT22;3699;51.462;6.696;2023-04-15T08:28:45;13.70;96.20
7317;DHT22;3699;51.462;6.696;2023-04-15T08:31:13;13.90;99.90
7317;DHT22;3699;51.462;6.696;2023-04-15T08:33:41;14.10;95.20
7317;DHT22;3699;51.462;6.696;2023-04-15T08:36:09;14.30;98.80
7317;DHT22;3699;51.462;6.696;2023-04-15T08:38:36;14.60;92.10
7317;DHT22;3699;51.462;6.696;2023-04-15T08:41:07;14.70;87.10
7317;DHT22;3699;51.462;6.696;2023-04-15T08:43:41;14.80;86.40
7317;DHT22;3699;51.462;6.696;2023-04-15T08:46:10;14.90;87.40
7317;DHT22;3699;51.462;6.696;2023-04-15T08:48:37;15.10;90.50
7317;DHT22;3699;51.462;6.696;2023-04-15T08:51:06;15.10;79.00
7317;DHT22;3699;51.462;6.696;2023-04-15T08:53:34;15.10;78.30
7317;DHT22;3699;51.462;6.696;2023-04-15T08:56:03;14.90;72.30
7317;DHT22;3699;51.462;6.696;2023-04-15T08:58:33;14.80;92.60
7317;DHT22;3699;51.462;6.696;2023-04-15T09:01:01;14.70;82.20
7317;DHT22;3699;51.462;6.696;2023-04-15T09:03:28;14.70;80.20
7317;DHT22;3699;51.462;6.696;2023-04-15T09:05:56;14.70;80.00
7317;DHT22;3699;51.462;6.696;2023-04-15T09:08:23;14.70;77.50
7317;DHT22;3699;51.462;6.696;2023-04-15T09:10:51;14.50;82.90
7317;DHT22;3699;51.462;6.696;2023-04-15T09:13:19;14.40;85.80
7317;DHT22;3699;51.462;6.696;2023-04-15T09:15:46;14.40;91.60
7317;DHT22;3699;51.462;6.696;2023-04-15T09:18:26;13.30;91.40
7317;DHT22;3699;51.462;6.696;2023-04-15T09:20:53;14.90;91.10
7317;DHT22;3699;51.462;6.696;2023-04-15T09:23:19;15.00;83.80
7317;DHT22;3699;51.462;6.696;2023-04-15T09:25:47;15.10;89.00
7317;DHT22;3699;51.462;6.696;2023-04-15T09:28:23;15.10;79.80
7317;DHT22;3699;51.462;6.696;2023-04-15T09:30:51;15.30;78.60
7317;DHT22;3699;51.462;6.696;2023-04-15T09:33:20;15.50;84.90
7317;DHT22;3699;51.462;6.696;2023-04-15T09:35:56;15.50;81.10
7317;DHT22;3699;51.462;6.696;2023-04-15T09:38:23;15.40;75.30
7317;DHT22;3699;51.462;6.696;2023-04-15T09:40:50;15.30;81.70
7317;DHT22;3699;51.462;6.696;2023-04-15T09:43:18;15.10;84.50
7317;DHT22;3699;51.462;6.696;2023-04-15T09:45:47;15.20;87.90
7317;DHT22;3699;51.462;6.696;2023-04-15T09:48:17;15.40;90.10
7317;DHT22;3699;51.462;6.696;2023-04-15T09:50:45;15.40;85.00
7317;DHT22;3699;51.462;6.696;2023-04-15T09:53:15;15.20;82.00
7317;DHT22;3699;51.462;6.696;2023-04-15T09:55:44;15.20;86.00
7317;DHT22;3699;51.462;6.696;2023-04-15T09:58:18;15.10;90.50
7317;DHT22;3699;51.462;6.696;2023-04-15T10:00:46;15.10;91.00
7317;DHT22;3699;51.462;6.696;2023-04-15T10:03:14;15.10;92.30
7317;DHT22;3699;51.462;6.696;2023-04-15T10:05:44;15.00;91.50
7317;DHT22;3699;51.462;6.696;2023-04-15T10:08:11;14.80;95.60
7317;DHT22;3699;51.462;6.696;2023-04-15T10:10:38;14.70;95.80
7317;DHT22;3699;51.462;6.696;2023-04-15T10:13:06;14.80;99.90
7317;DHT22;3699;51.462;6.696;2023-04-15T10:15:35;15.00;99.90
7317;DHT22;3699;51.462;6.696;2023-04-15T10:18:02;15.20;99.90
7317;DHT22;3699;51.462;6.696;2023-04-15T10:20:31;15.30;97.80
7317;DHT22;3699;51.462;6.696;2023-04-15T10:22:57;15.40;95.10
7317;DHT22;3699;51.462;6.696;2023-04-15T10:25:25;15.40;94.10
7317;DHT22;3699;51.462;6.696;2023-04-15T10:27:53;15.40;99.90
7317;DHT22;3699;51.462;6.696;2023-04-15T10:30:21;15.50;97.50
7317;DHT22;3699;51.462;6.696;2023-04-15T10:32:49;15.40;98.50
7317;DHT22;3699;51.462;6.696;2023-04-15T10:35:16;15.40;99.90
7317;DHT22;3699;51.462;6.696;2023-04-15T10:37:43;15.50;97.20
7317;DHT22;3699;51.462;6.696;2023-04-15T10:40:24;15.40;97.30
7317;DHT22;3699;51.462;6.696;2023-04-15T10:42:53;15.20;99.90
7317;DHT22;3699;51.462;6.696;2023-04-15T10:45:20;15.20;93.90
7317;DHT22;3699;51.462;6.696;2023-04-15T10:47:54;15.30;98.90
7317;DHT22;3699;51.462;6.696;2023-04-15T10:50:21;15.30;98.10
7317;DHT22;3699;51.462;6.696;2023-04-15T10:52:50;15.40;98.70
7317;DHT22;3699;51.462;6.696;2023-04-15T10:55:19;15.50;98.00
7317;DHT22;3699;51.462;6.696;2023-04-15T10:57:50;15.60;99.90
7317;DHT22;3699;51.462;6.696;2023-04-15T11:00:18;15.60;93.00
7317;DHT22;3699;51.462;6.696;2023-04-15T11:02:47;15.50;92.50
7317;DHT22;3699;51.462;6.696;2023-04-15T11:05:16;15.30;93.40
7317;DHT22;3699;51.462;6.696;2023-04-15T11:07:51;15.00;98.30
7317;DHT22;3699;51.462;6.696;2023-04-15T11:13:23;14.70;99.90
7317;DHT22;3699;51.462;6.696;2023-04-15T11:15:55;14.40;99.90
7317;DHT22;3699;51.462;6.696;2023-04-15T11:18:24;14.20;99.90
7317;DHT22;3699;51.462;6.696;2023-04-15T11:20:55;14.30;99.90
7317;DHT22;3699;51.462;6.696;2023-04-15T11:23:27;14.30;99.90
7317;DHT22;3699;51.462;6.696;2023-04-15T11:25:54;14.20;99.90
7317;DHT22;3699;51.462;6.696;2023-04-15T11:28:24;14.20;99.90
7317;DHT22;3699;51.462;6.696;2023-04-15T11:30:51;14.10;99.90
7317;DHT22;3699;51.462;6.696;2023-04-15T11:33:18;14.20;99.90
7317;DHT22;3699;51.462;6.696;2023-04-15T11:35:45;14.20;99.90
7317;DHT22;3699;51.462;6.696;2023-04-15T11:38:13;14.30;99.90
7317;DHT22;3699;51.462;6.696;2023-04-15T11:40:41;14.40;99.90
7317;DHT22;3699;51.462;6.696;2023-04-15T11:43:10;14.50;99.90
7317;DHT22;3699;51.462;6.696;2023-04-15T11:45:38;14.40;99.90
7317;DHT22;3699;51.462;6.696;2023-04-15T11:48:13;14.40;99.90
7317;DHT22;3699;51.462;6.696;2023-04-15T11:50:52;14.40;99.90
7317;DHT22;3699;51.462;6.696;2023-04-15T11:53:20;14.40;99.90
7317;DHT22;3699;51.462;6.696;2023-04-15T11:55:49;14.40;99.90
7317;DHT22;3699;51.462;6.696;2023-04-15T11:58:17;14.40;99.90
7317;DHT22;3699;51.462;6.696;2023-04-15T12:00:48;14.40;99.90
7317;DHT22;3699;51.462;6.696;2023-04-15T12:03:18;14.30;99.90
7317;DHT22;3699;51.462;6.696;2023-04-15T12:06:12;14.20;99.90
7317;DHT22;3699;51.462;6.696;2023-04-15T12:09:02;14.00;99.90
7317;DHT22;3699;51.462;6.696;2023-04-15T12:11:31;13.90;99.90
7317;DHT22;3699;51.462;6.696;2023-04-15T12:14:02;13.80;99.90
7317;DHT22;3699;51.462;6.696;2023-04-15T12:16:30;13.70;99.90
7317;DHT22;3699;51.462;6.696;2023-04-15T12:18:58;13.80;99.90
7317;DHT22;3699;51.462;6.696;2023-04-15T12:21:26;13.80;99.90
7317;DHT22;3699;51.462;6.696;2023-04-15T12:23:55;13.80;99.90
7317;DHT22;3699;51.462;6.696;2023-04-15T12:26:27;13.80;99.90
7317;DHT22;3699;51.462;6.696;2023-04-15T12:28:54;13.90;99.90
7317;DHT22;3699;51.462;6.696;2023-04-15T12:31:21;14.00;99.90
7317;DHT22;3699;51.462;6.696;2023-04-15T12:33:49;13.70;99.90
7317;DHT22;3699;51.462;6.696;2023-04-15T12:36:15;14.10;99.90
7317;DHT22;3699;51.462;6.696;2023-04-15T12:38:42;14.20;99.90
7317;DHT22;3699;51.462;6.696;2023-04-15T12:41:10;14.40;99.90
7317;DHT22;3699;51.462;6.696;2023-04-15T12:43:37;14.50;99.90
7317;DHT22;3699;51.462;6.696;2023-04-15T12:46:04;14.40;99.90
7317;DHT22;3699;51.462;6.696;2023-04-15T12:48:31;14.40;99.90
7317;DHT22;3699;51.462;6.696;2023-04-15T12:50:58;14.30;99.90
7317;DHT22;3699;51.462;6.696;2023-04-15T12:53:25;14.20;99.90
7317;DHT22;3699;51.462;6.696;2023-04-15T12:55:53;14.20;99.90
7317;DHT22;3699;51.462;6.696;2023-04-15T12:58:21;14.10;99.90
7317;DHT22;3699;51.462;6.696;2023-04-15T13:00:48;14.00;99.90
7317;DHT22;3699;51.462;6.696;2023-04-15T13:03:15;13.90;99.90
7317;DHT22;3699;51.462;6.696;2023-04-15T13:05:51;13.80;99.90
7317;DHT22;3699;51.462;6.696;2023-04-15T13:08:18;13.60;99.90
7317;DHT22;3699;51.462;6.696;2023-04-15T13:10:45;13.40;99.90
7317;DHT22;3699;51.462;6.696;2023-04-15T13:13:12;13.00;99.90
7317;DHT22;3699;51.462;6.696;2023-04-15T13:15:40;13.30;99.90
7317;DHT22;3699;51.462;6.696;2023-04-15T13:18:10;13.30;99.90
7317;DHT22;3699;51.462;6.696;2023-04-15T13:20:36;13.40;99.90
7317;DHT22;3699;51.462;6.696;2023-04-15T13:23:03;13.50;99.90
7317;DHT22;3699;51.462;6.696;2023-04-15T13:25:30;13.40;99.90
7317;DHT22;3699;51.462;6.696;2023-04-15T13:27:56;13.40;99.90
7317;DHT22;3699;51.462;6.696;2023-04-15T13:30:23;13.50;99.90
7317;DHT22;3699;51.462;6.696;2023-04-15T13:32:52;13.50;99.90
7317;DHT22;3699;51.462;6.696;2023-04-15T13:35:19;13.40;99.90
7317;DHT22;3699;51.462;6.696;2023-04-15T13:37:46;13.40;99.90
7317;DHT22;3699;51.462;6.696;2023-04-15T13:40:13;13.40;99.90
7317;DHT22;3699;51.462;6.696;2023-04-15T13:42:40;13.30;99.90
7317;DHT22;3699;51.462;6.696;2023-04-15T13:45:08;13.30;99.90
7317;DHT22;3699;51.462;6.696;2023-04-15T13:47:35;13.20;99.90
7317;DHT22;3699;51.462;6.696;2023-04-15T13:50:03;13.20;99.90
7317;DHT22;3699;51.462;6.696;2023-04-15T13:52:30;13.10;99.90
7317;DHT22;3699;51.462;6.696;2023-04-15T13:54:57;13.20;99.90
7317;DHT22;3699;51.462;6.696;2023-04-15T13:57:24;13.10;99.90
7317;DHT22;3699;51.462;6.696;2023-04-15T13:59:51;13.00;99.90
7317;DHT22;3699;51.462;6.696;2023-04-15T14:02:20;13.00;99.90
7317;DHT22;3699;51.462;6.696;2023-04-15T14:04:47;13.00;99.90
7317;DHT22;3699;51.462;6.696;2023-04-15T14:07:15;13.00;99.90
7317;DHT22;3699;51.462;6.696;2023-04-15T14:09:42;12.90;99.90
7317;DHT22;3699;51.462;6.696;2023-04-15T14:12:09;13.00;99.90
7317;DHT22;3699;51.462;6.696;2023-04-15T14:14:36;13.00;99.90
7317;DHT22;3699;51.462;6.696;2023-04-15T14:17:03;13.00;99.90
7317;DHT22;3699;51.462;6.696;2023-04-15T14:19:30;13.30;99.90
7317;DHT22;3699;51.462;6.696;2023-04-15T14:21:56;13.10;99.90
7317;DHT22;3699;51.462;6.696;2023-04-15T14:24:25;13.20;99.90
7317;DHT22;3699;51.462;6.696;2023-04-15T14:26:51;13.30;99.90
7317;DHT22;3699;51.462;6.696;2023-04-15T14:29:19;13.40;99.90
7317;DHT22;3699;51.462;6.696;2023-04-15T14:31:46;13.50;99.90
7317;DHT22;3699;51.462;6.696;2023-04-15T14:34:13;13.50;99.90
7317;DHT22;3699;51.462;6.696;2023-04-15T14:36:40;13.50;99.90
7317;DHT22;3699;51.462;6.696;2023-04-15T14:39:07;13.50;99.90
7317;DHT22;3699;51.462;6.696;2023-04-15T14:41:35;13.40;99.90
7317;DHT22;3699;51.462;6.696;2023-04-15T14:44:02;13.30;99.90
7317;DHT22;3699;51.462;6.696;2023-04-15T14:46:28;13.10;99.90
7317;DHT22;3699;51.462;6.696;2023-04-15T14:48:55;13.00;99.90
7317;DHT22;3699;51.462;6.696;2023-04-15T14:51:22;12.90;99.90
7317;DHT22;3699;51.462;6.696;2023-04-15T14:53:49;13.00;99.90
7317;DHT22;3699;51.462;6.696;2023-04-15T14:56:15;13.20;99.90
7317;DHT22;3699;51.462;6.696;2023-04-15T14:58:44;12.80;99.90
7317;DHT22;3699;51.462;6.696;2023-04-15T15:01:10;12.90;99.90
7317;DHT22;3699;51.462;6.696;2023-04-15T15:03:38;12.90;99.90
7317;DHT22;3699;51.462;6.696;2023-04-15T15:06:05;13.00;99.90
7317;DHT22;3699;51.462;6.696;2023-04-15T15:08:31;12.90;99.90
7317;DHT22;3699;51.462;6.696;2023-04-15T15:10:58;12.90;99.90
7317;DHT22;3699;51.462;6.696;2023-04-15T15:13:25;12.60;99.90
7317;DHT22;3699;51.462;6.696;2023-04-15T15:15:53;12.80;99.90
7317;DHT22;3699;51.462;6.696;2023-04-15T15:18:20;12.70;99.90
7317;DHT22;3699;51.462;6.696;2023-04-15T15:20:46;12.60;99.90
7317;DHT22;3699;51.462;6.696;2023-04-15T15:23:13;12.80;99.90
7317;DHT22;3699;51.462;6.696;2023-04-15T15:25:40;12.60;99.90
7317;DHT22;3699;51.462;6.696;2023-04-15T15:28:07;12.70;99.90
7317;DHT22;3699;51.462;6.696;2023-04-15T15:30:34;12.40;99.90
7317;DHT22;3699;51.462;6.696;2023-04-15T15:33:02;12.60;99.90
7317;DHT22;3699;51.462;6.696;2023-04-15T15:35:29;12.70;99.90
7317;DHT22;3699;51.462;6.696;2023-04-15T15:37:55;13.00;99.90
7317;DHT22;3699;51.462;6.696;2023-04-15T15:40:22;12.70;99.90
7317;DHT22;3699;51.462;6.696;2023-04-15T15:42:49;12.70;99.90
7317;DHT22;3699;51.462;6.696;2023-04-15T15:45:16;12.70;99.90
7317;DHT22;3699;51.462;6.696;2023-04-15T15:47:43;12.60;99.90
7317;DHT22;3699;51.462;6.696;2023-04-15T15:50:11;12.60;99.90
7317;DHT22;3699;51.462;6.696;2023-04-15T15:52:39;12.30;99.90
7317;DHT22;3699;51.462;6.696;2023-04-15T15:55:12;12.30;99.90
7317;DHT22;3699;51.462;6.696;2023-04-15T15:57:39;12.20;99.90
7317;DHT22;3699;51.462;6.696;2023-04-15T16:00:07;12.10;99.90
7317;DHT22;3699;51.462;6.696;2023-04-15T16:02:34;12.00;99.90
7317;DHT22;3699;51.462;6.696;2023-04-15T16:05:01;11.70;99.90
7317;DHT22;3699;51.462;6.696;2023-04-15T16:07:29;12.00;99.90
7317;DHT22;3699;51.462;6.696;2023-04-15T16:09:56;11.90;99.90
7317;DHT22;3699;51.462;6.696;2023-04-15T16:12:23;11.80;99.90
7317;DHT22;3699;51.462;6.696;2023-04-15T16:14:50;11.80;99.90
7317;DHT22;3699;51.462;6.696;2023-04-15T16:17:16;11.70;99.90
7317;DHT22;3699;51.462;6.696;2023-04-15T16:19:43;11.70;99.90
7317;DHT22;3699;51.462;6.696;2023-04-15T16:22:10;11.80;99.90
7317;DHT22;3699;51.462;6.696;2023-04-15T16:24:38;11.60;99.90
7317;DHT22;3699;51.462;6.696;2023-04-15T16:27:05;11.60;99.90
7317;DHT22;3699;51.462;6.696;2023-04-15T16:29:32;11.50;99.90
7317;DHT22;3699;51.462;6.696;2023-04-15T16:31:59;11.60;99.90
7317;DHT22;3699;51.462;6.696;2023-04-15T16:34:26;11.50;99.90
7317;DHT22;3699;51.462;6.696;2023-04-15T16:36:53;11.70;99.90
7317;DHT22;3699;51.462;6.696;2023-04-15T16:39:20;11.60;99.90
7317;DHT22;3699;51.462;6.696;2023-04-15T16:41:49;11.80;99.90
7317;DHT22;3699;51.462;6.696;2023-04-15T16:44:16;11.40;99.90
7317;DHT22;3699;51.462;6.696;2023-04-15T16:46:43;11.40;99.90
7317;DHT22;3699;51.462;6.696;2023-04-15T16:49:09;11.40;99.90
7317;DHT22;3699;51.462;6.696;2023-04-15T16:51:36;11.40;99.90
7317;DHT22;3699;51.462;6.696;2023-04-15T16:54:03;11.30;99.90
7317;DHT22;3699;51.462;6.696;2023-04-15T16:56:30;11.40;99.90
7317;DHT22;3699;51.462;6.696;2023-04-15T16:58:58;11.40;99.90
7317;DHT22;3699;51.462;6.696;2023-04-15T17:01:25;11.40;99.90